Time;durP1;ratioP1;P1;durP2;ratioP2;P2;SDS_P1;SDS_P2;PMS_P1;PMS_P2;Temp;Humidity;BMP_temperature;BMP_pressure;BME280_temperature;BME280_humidity;BME280_pressure;Samples;Min_cycle;Max_cycle;Signal;HPM_P1;HPM_P2
2022/07/09 00:01:15;;;;;;;;;;;;;;;;;;5096649;28;19923;-84
2022/07/09 00:03:40;;;;;;;;;;;;;;;;;;5096481;28;20318;-83
2022/07/09 00:06:05;;;;;;;;;;;;;;;;;;5095590;28;19920;-83
2022/07/09 00:08:31;;;;;;;;;;;;;;;;;;5096263;28;19962;-83
2022/07/09 00:10:56;;;;;;;;;;;;;;;;;;5096232;28;19916;-83
2022/07/09 00:13:22;;;;;;;;;;;;;;;;;;5096577;28;19920;-83
2022/07/09 00:15:47;;;;;;;;;;;;;;;;;;5096337;28;19927;-84
2022/07/09 00:18:13;;;;;;;;;;;;;;;;;;5111637;28;19943;-83
2022/07/09 00:20:38;;;;;;;;;;;;;;;;;;5095961;28;19920;-83
2022/07/09 00:23:03;;;;;;;;;;;;;;;;;;5096101;28;19920;-83
2022/07/09 00:25:29;;;;;;;;;;;;;;;;;;5111556;28;19916;-83
2022/07/09 00:27:54;;;;;;;;;;;;;;;;;;5111582;28;19916;-83
2022/07/09 00:30:20;;;;;;;;;;;;;;;;;;5095875;28;20381;-83
2022/07/09 00:32:45;;;;;;;;;;;;;;;;;;5095702;28;19931;-83
2022/07/09 00:35:10;;;;;;;;;;;;;;;;;;5095937;28;19962;-83
2022/07/09 00:37:36;;;;;;;;;;;;;;;;;;5095621;28;20007;-83
2022/07/09 00:40:01;;;;;;;;;;;;;;;;;;5111292;28;19926;-84
2022/07/09 00:42:27;;;;;;;;;;;;;;;;;;5095593;28;19916;-84
2022/07/09 00:44:52;;;;;;;;;;;;;;;;;;5111265;28;19926;-84
2022/07/09 00:47:18;;;;;;;;;;;;;;;;;;5095346;28;19920;-84
2022/07/09 00:49:44;;;;;;;;;;;;;;;;;;5111185;28;20014;-84
2022/07/09 00:52:10;;;;;;;;;;;;;;;;;;5095410;28;19995;-84
2022/07/09 00:54:36;;;;;;;;;;;;;;;;;;5111212;28;19927;-83
2022/07/09 00:57:04;;;;;;;;;;;;;;;;;;5095196;28;19961;-84
2022/07/09 00:59:29;;;;;;;;;;;;;;;;;;5095250;28;19923;-83
2022/07/09 01:01:55;;;;;;;;;;;;;;;;;;5095346;28;19916;-83
2022/07/09 01:04:21;;;;;;;;;;;;;;;;;;5110975;28;20048;-88
2022/07/09 01:06:46;;;;;;;;;;;;;;;;;;5110939;28;19920;-89
2022/07/09 01:09:13;;;;;;;;;;;;;;;;;;5111113;28;20016;-83
2022/07/09 01:11:38;;;;;;;;;;;;;;;;;;5095345;28;19923;-82
2022/07/09 01:14:04;;;;;;;;;;;;;;;;;;5095502;28;19916;-83
2022/07/09 01:16:33;;;;;;;;;;;;;;;;;;5094580;28;19923;-83
2022/07/09 01:18:58;;;;;;;;;;;;;;;;;;5094261;28;19923;-83
2022/07/09 01:21:24;;;;;;;;;;;;;;;;;;5094906;28;20313;-83
2022/07/09 01:23:50;;;;;;;;;;;;;;;;;;5094878;28;19916;-83
2022/07/09 01:26:16;;;;;;;;;;;;;;;;;;5094920;28;20342;-84
2022/07/09 01:28:41;;;;;;;;;;;;;;;;;;5094823;28;19920;-83
2022/07/09 01:31:07;;;;;;;;;;;;;;;;;;5094608;28;19923;-84
2022/07/09 01:33:33;;;;;;;;;;;;;;;;;;5094663;28;19924;-84
2022/07/09 01:35:58;;;;;;;;;;;;;;;;;;5094808;28;19927;-83
2022/07/09 01:38:24;;;;;;;;;;;;;;;;;;5094373;28;19916;-83
2022/07/09 01:40:49;;;;;;;;;;;;;;;;;;5127275;27;19916;-83
2022/07/09 01:43:15;;;;;;;;;;;;;;;;;;5094666;28;20012;-84
2022/07/09 01:45:40;;;;;;;;;;;;;;;;;;5094969;28;20061;-84
2022/07/09 01:48:06;;;;;;;;;;;;;;;;;;5094931;28;19920;-83
2022/07/09 01:50:31;;;;;;;;;;;;;;;;;;5095072;28;19916;-83
2022/07/09 01:52:57;;;;;;;;;;;;;;;;;;5095302;28;19938;-84
2022/07/09 01:55:22;;;;;;;;;;;;;;;;;;5096947;28;19951;-83
2022/07/09 01:57:48;;;;;;;;;;;;;;;;;;5112371;28;19923;-87
2022/07/09 02:00:14;;;;;;;;;;;;;;;;;;5109975;28;19923;-85
2022/07/09 02:02:39;;;;;;;;;;;;;;;;;;5100104;28;19986;-84
2022/07/09 02:05:05;;;;;;;;;;;;;;;;;;5095658;28;19920;-84
2022/07/09 02:07:31;;;;;;;;;;;;;;;;;;5095195;28;19916;-82
2022/07/09 02:09:56;;;;;;;;;;;;;;;;;;5094051;28;20344;-84
2022/07/09 02:12:21;;;;;;;;;;;;;;;;;;5094014;28;19943;-83
2022/07/09 02:14:47;;;;;;;;;;;;;;;;;;5094108;28;20412;-85
2022/07/09 02:17:13;;;;;;;;;;;;;;;;;;5109480;28;20372;-83
2022/07/09 02:19:38;;;;;;;;;;;;;;;;;;5109426;28;19919;-84
2022/07/09 02:22:04;;;;;;;;;;;;;;;;;;5093819;28;19916;-84
2022/07/09 02:24:29;;;;;;;;;;;;;;;;;;5109517;28;19916;-83
2022/07/09 02:26:55;;;;;;;;;;;;;;;;;;5093839;28;19923;-84
2022/07/09 02:29:20;;;;;;;;;;;;;;;;;;5093458;28;19916;-83
2022/07/09 02:31:46;;;;;;;;;;;;;;;;;;5093704;28;20412;-84
2022/07/09 02:34:11;;;;;;;;;;;;;;;;;;5093713;28;20337;-84
2022/07/09 02:36:37;;;;;;;;;;;;;;;;;;5093635;28;19963;-83
2022/07/09 02:39:02;;;;;;;;;;;;;;;;;;5109191;28;19924;-84
2022/07/09 02:41:27;;;;;;;;;;;;;;;;;;5093631;28;19928;-85
2022/07/09 02:43:53;;;;;;;;;;;;;;;;;;5093468;28;20402;-85
2022/07/09 02:46:18;;;;;;;;;;;;;;;;;;5093549;28;19916;-84
2022/07/09 02:48:44;;;;;;;;;;;;;;;;;;5109077;28;19926;-84
2022/07/09 02:51:12;;;;;;;;;;;;;;;;;;5092692;28;21572;-85
2022/07/09 02:53:37;;;;;;;;;;;;;;;;;;5093655;28;19923;-84
2022/07/09 02:56:03;;;;;;;;;;;;;;;;;;5093847;28;19920;-83
2022/07/09 02:58:28;;;;;;;;;;;;;;;;;;5093958;28;19962;-84
2022/07/09 03:00:53;;;;;;;;;;;;;;;;;;5109402;28;19919;-85
2022/07/09 03:03:19;;;;;;;;;;;;;;;;;;5093666;28;19997;-84
2022/07/09 03:05:44;;;;;;;;;;;;;;;;;;5093502;28;19963;-84
2022/07/09 03:08:10;;;;;;;;;;;;;;;;;;5093628;28;19952;-84
2022/07/09 03:10:35;;;;;;;;;;;;;;;;;;5093497;28;20411;-84
2022/07/09 03:13:01;;;;;;;;;;;;;;;;;;5093837;28;20295;-84
2022/07/09 03:15:26;;;;;;;;;;;;;;;;;;5093598;28;19920;-84
2022/07/09 03:17:52;;;;;;;;;;;;;;;;;;5100558;28;20022;-84
2022/07/09 03:20:17;;;;;;;;;;;;;;;;;;5098669;28;19938;-84
2022/07/09 03:22:43;;;;;;;;;;;;;;;;;;5093455;28;19916;-83
2022/07/09 03:25:08;;;;;;;;;;;;;;;;;;5093260;28;19923;-84
2022/07/09 03:27:34;;;;;;;;;;;;;;;;;;5093250;28;19916;-83
2022/07/09 03:30:00;;;;;;;;;;;;;;;;;;5108973;28;19916;-85
2022/07/09 03:32:26;;;;;;;;;;;;;;;;;;5093101;28;19974;-84
2022/07/09 03:34:54;;;;;;;;;;;;;;;;;;5093261;28;19926;-84
2022/07/09 03:37:20;;;;;;;;;;;;;;;;;;5093310;28;19970;-83
2022/07/09 03:39:46;;;;;;;;;;;;;;;;;;5096592;28;19920;-85
2022/07/09 03:42:12;;;;;;;;;;;;;;;;;;5118984;27;20013;-83
2022/07/09 03:44:38;;;;;;;;;;;;;;;;;;5137899;27;19915;-83
2022/07/09 03:47:03;;;;;;;;;;;;;;;;;;5170271;27;20005;-83
2022/07/09 03:49:29;;;;;;;;;;;;;;;;;;5166419;27;19916;-84
2022/07/09 03:51:54;;;;;;;;;;;;;;;;;;5117183;28;19957;-83
2022/07/09 03:54:20;;;;;;;;;;;;;;;;;;5116969;28;19916;-84
2022/07/09 03:56:45;;;;;;;;;;;;;;;;;;5117286;28;19916;-86
2022/07/09 03:59:11;;;;;;;;;;;;;;;;;;5117004;28;20344;-82
2022/07/09 04:01:36;;;;;;;;;;;;;;;;;;5117159;28;19916;-83
2022/07/09 04:04:02;;;;;;;;;;;;;;;;;;5116890;28;20410;-84
2022/07/09 04:06:27;;;;;;;;;;;;;;;;;;5117323;28;19915;-83
2022/07/09 04:08:52;;;;;;;;;;;;;;;;;;5116806;28;19919;-88
2022/07/09 04:11:18;;;;;;;;;;;;;;;;;;5118345;28;20456;-83
2022/07/09 04:13:44;;;;;;;;;;;;;;;;;;5125471;27;20362;-84
2022/07/09 04:16:09;;;;;;;;;;;;;;;;;;5131654;27;19982;-85
2022/07/09 04:18:35;;;;;;;;;;;;;;;;;;5116840;28;19922;-83
2022/07/09 04:21:00;;;;;;;;;;;;;;;;;;5119271;27;19961;-83
2022/07/09 04:23:26;;;;;;;;;;;;;;;;;;5132744;27;19916;-84
2022/07/09 04:25:52;;;;;;;;;;;;;;;;;;5117017;28;19916;-83
2022/07/09 04:28:18;;;;;;;;;;;;;;;;;;5116309;28;20365;-83
2022/07/09 04:30:44;;;;;;;;;;;;;;;;;;5116444;28;19955;-83
2022/07/09 04:33:09;;;;;;;;;;;;;;;;;;5108211;28;19964;-89
2022/07/09 04:35:35;;;;;;;;;;;;;;;;;;5120634;27;20392;-84
2022/07/09 04:38:01;;;;;;;;;;;;;;;;;;5113163;28;19923;-85
2022/07/09 04:40:26;;;;;;;;;;;;;;;;;;5117052;28;20306;-85
2022/07/09 04:42:52;;;;;;;;;;;;;;;;;;5116924;28;19923;-88
2022/07/09 04:45:17;;;;;;;;;;;;;;;;;;5117039;28;19916;-83
2022/07/09 04:47:42;;;;;;;;;;;;;;;;;;5115221;28;19931;-85
2022/07/09 04:50:08;;;;;;;;;;;;;;;;;;5106483;28;20287;-83
2022/07/09 04:52:33;;;;;;;;;;;;;;;;;;5098513;28;20389;-82
2022/07/09 04:54:59;;;;;;;;;;;;;;;;;;5103101;28;19927;-83
2022/07/09 04:57:24;;;;;;;;;;;;;;;;;;5102858;28;19978;-83
2022/07/09 04:59:50;;;;;;;;;;;;;;;;;;5111177;28;19920;-84
2022/07/09 05:02:15;;;;;;;;;;;;;;;;;;5104552;28;19923;-83
2022/07/09 05:04:41;;;;;;;;;;;;;;;;;;5110875;28;20282;-83
2022/07/09 05:07:06;;;;;;;;;;;;;;;;;;5105641;28;19924;-83
2022/07/09 05:09:32;;;;;;;;;;;;;;;;;;5103951;28;20605;-83
2022/07/09 05:11:57;;;;;;;;;;;;;;;;;;5108753;28;19924;-84
2022/07/09 05:14:22;;;;;;;;;;;;;;;;;;5103187;27;20370;-83
2022/07/09 05:16:48;;;;;;;;;;;;;;;;;;5106502;28;19923;-83
2022/07/09 05:19:13;;;;;;;;;;;;;;;;;;5107866;28;20010;-83
2022/07/09 05:21:39;;;;;;;;;;;;;;;;;;5103317;28;19919;-82
2022/07/09 05:24:06;;;;;;;;;;;;;;;;;;5103748;28;19927;-82
2022/07/09 05:26:32;;;;;;;;;;;;;;;;;;5104890;28;20006;-84
2022/07/09 05:28:58;;;;;;;;;;;;;;;;;;5106543;28;19955;-85
2022/07/09 05:31:23;;;;;;;;;;;;;;;;;;5131599;27;19924;-84
2022/07/09 05:33:49;;;;;;;;;;;;;;;;;;5121739;27;19942;-83
2022/07/09 05:36:14;;;;;;;;;;;;;;;;;;5117295;27;20370;-83
2022/07/09 05:38:39;;;;;;;;;;;;;;;;;;5115780;28;20393;-84
2022/07/09 05:41:05;;;;;;;;;;;;;;;;;;5115938;28;19916;-84
2022/07/09 05:43:30;;;;;;;;;;;;;;;;;;5116209;28;19915;-84
2022/07/09 05:45:55;;;;;;;;;;;;;;;;;;5116335;28;20359;-83
2022/07/09 05:48:22;;;;;;;;;;;;;;;;;;5115906;28;19920;-84
2022/07/09 05:50:47;;;;;;;;;;;;;;;;;;5116648;28;19916;-84
2022/07/09 05:53:13;;;;;;;;;;;;;;;;;;5116450;28;19923;-84
2022/07/09 05:55:38;;;;;;;;;;;;;;;;;;5116537;28;19915;-84
2022/07/09 05:58:04;;;;;;;;;;;;;;;;;;5116628;27;19916;-84
2022/07/09 06:00:31;;;;;;;;;;;;;;;;;;5120412;27;19927;-84
2022/07/09 06:02:56;;;;;;;;;;;;;;;;;;5118744;28;19916;-84
2022/07/09 06:05:23;;;;;;;;;;;;;;;;;;5124748;27;19920;-83
2022/07/09 06:07:49;;;;;;;;;;;;;;;;;;5137452;27;19923;-83
2022/07/09 06:10:16;;;;;;;;;;;;;;;;;;5137425;27;19911;-84
2022/07/09 06:12:43;;;;;;;;;;;;;;;;;;5137704;27;19919;-85
2022/07/09 06:15:09;;;;;;;;;;;;;;;;;;5137929;27;19962;-86
2022/07/09 06:17:35;;;;;;;;;;;;;;;;;;5139224;27;19922;-85
2022/07/09 06:20:00;;;;;;;;;;;;;;;;;;5136811;27;20002;-85
2022/07/09 06:22:26;;;;;;;;;;;;;;;;;;5136980;27;19911;-82
2022/07/09 06:24:52;;;;;;;;;;;;;;;;;;5137746;27;20389;-81
2022/07/09 06:27:18;;;;;;;;;;;;;;;;;;5139454;27;19911;-85
2022/07/09 06:29:43;;;;;;;;;;;;;;;;;;5139433;27;19905;-82
2022/07/09 06:32:08;;;;;;;;;;;;;;;;;;5144906;27;19919;-83
2022/07/09 06:34:34;;;;;;;;;;;;;;;;;;5127784;28;19915;-83
2022/07/09 06:36:59;;;;;;;;;;;;;;;;;;5121436;28;19916;-82
2022/07/09 06:42:09;;;;;;;;;;;;;;;;;;5125105;28;19949;-82
2022/07/09 06:44:35;;;;;;;;;;;;;;;;;;5135585;28;19919;-83
2022/07/09 06:47:01;;;;;;;;;;;;;;;;;;5135617;27;19915;-83
2022/07/09 06:49:27;;;;;;;;;;;;;;;;;;5131361;27;19915;-84
2022/07/09 06:51:52;;;;;;;;;;;;;;;;;;5116920;28;19923;-83
2022/07/09 06:54:18;;;;;;;;;;;;;;;;;;5128044;28;19938;-83
2022/07/09 06:56:43;;;;;;;;;;;;;;;;;;5135916;28;19916;-84
2022/07/09 06:59:09;;;;;;;;;;;;;;;;;;5134966;28;19962;-84
2022/07/09 07:01:34;;;;;;;;;;;;;;;;;;5117947;27;20006;-90
2022/07/09 07:03:59;;;;;;;;;;;;;;;;;;5116718;28;20509;-87
2022/07/09 07:06:26;;;;;;;;;;;;;;;;;;5114978;28;20010;-84
2022/07/09 07:08:52;;;;;;;;;;;;;;;;;;5115722;28;19934;-83
2022/07/09 07:11:18;;;;;;;;;;;;;;;;;;5115409;28;19916;-93
2022/07/09 07:13:43;;;;;;;;;;;;;;;;;;5115099;28;19961;-83
2022/07/09 07:16:09;;;;;;;;;;;;;;;;;;5119374;28;19939;-84
2022/07/09 07:18:34;;;;;;;;;;;;;;;;;;5118432;28;19915;-83
2022/07/09 07:21:00;;;;;;;;;;;;;;;;;;5118342;28;19942;-83
2022/07/09 07:23:25;;;;;;;;;;;;;;;;;;5118610;28;20370;-86
2022/07/09 07:25:50;;;;;;;;;;;;;;;;;;5118383;28;19915;-82
2022/07/09 07:28:16;;;;;;;;;;;;;;;;;;5134749;27;19919;-83
2022/07/09 07:30:41;;;;;;;;;;;;;;;;;;5137581;27;19923;-83
2022/07/09 07:33:07;;;;;;;;;;;;;;;;;;5138429;27;20427;-83
2022/07/09 07:35:32;;;;;;;;;;;;;;;;;;5138084;27;20014;-87
2022/07/09 07:37:59;;;;;;;;;;;;;;;;;;5137884;27;19958;-83
2022/07/09 07:40:25;;;;;;;;;;;;;;;;;;5138170;27;19919;-82
2022/07/09 07:42:50;;;;;;;;;;;;;;;;;;5136358;27;20437;-84
2022/07/09 07:45:16;;;;;;;;;;;;;;;;;;5137864;27;19922;-84
2022/07/09 07:47:41;;;;;;;;;;;;;;;;;;5137542;27;20386;-82
2022/07/09 07:50:07;;;;;;;;;;;;;;;;;;5137477;27;19916;-84
2022/07/09 07:52:32;;;;;;;;;;;;;;;;;;5137510;27;19919;-85
2022/07/09 07:54:57;;;;;;;;;;;;;;;;;;5137372;27;19916;-83
2022/07/09 07:57:23;;;;;;;;;;;;;;;;;;5135965;27;20290;-83
2022/07/09 07:59:48;;;;;;;;;;;;;;;;;;5136299;27;20454;-83
2022/07/09 08:02:14;;;;;;;;;;;;;;;;;;5137470;27;20002;-84
2022/07/09 08:04:40;;;;;;;;;;;;;;;;;;5136408;27;19919;-86
2022/07/09 08:07:05;;;;;;;;;;;;;;;;;;5116775;27;20026;-88
2022/07/09 08:09:32;;;;;;;;;;;;;;;;;;5115271;28;19927;-85
2022/07/09 08:11:58;;;;;;;;;;;;;;;;;;5116612;28;20298;-83
2022/07/09 08:14:23;;;;;;;;;;;;;;;;;;5115294;28;19919;-83
2022/07/09 08:16:49;;;;;;;;;;;;;;;;;;5115329;28;20380;-83
2022/07/09 08:19:15;;;;;;;;;;;;;;;;;;5116371;28;19916;-84
2022/07/09 08:21:41;;;;;;;;;;;;;;;;;;5116424;28;20397;-84
2022/07/09 08:24:06;;;;;;;;;;;;;;;;;;5116300;28;19916;-84
2022/07/09 08:26:32;;;;;;;;;;;;;;;;;;5115803;28;19919;-84
2022/07/09 08:28:58;;;;;;;;;;;;;;;;;;5116304;28;20287;-83
2022/07/09 08:31:23;;;;;;;;;;;;;;;;;;5114864;28;20002;-84
2022/07/09 08:33:49;;;;;;;;;;;;;;;;;;5116061;28;20014;-84
2022/07/09 08:36:15;;;;;;;;;;;;;;;;;;5116200;28;19920;-84
2022/07/09 08:38:41;;;;;;;;;;;;;;;;;;5116190;28;20007;-85
2022/07/09 08:41:07;;;;;;;;;;;;;;;;;;5116194;28;19926;-84
2022/07/09 08:43:34;;;;;;;;;;;;;;;;;;5116548;27;19923;-84
2022/07/09 08:45:59;;;;;;;;;;;;;;;;;;5115556;28;19916;-85
2022/07/09 08:48:25;;;;;;;;;;;;;;;;;;5114184;28;19977;-83
2022/07/09 08:50:51;;;;;;;;;;;;;;;;;;5115808;28;19959;-84
2022/07/09 08:53:17;;;;;;;;;;;;;;;;;;5114294;28;19922;-82
2022/07/09 08:55:44;;;;;;;;;;;;;;;;;;5116666;28;20431;-83
2022/07/09 08:58:11;;;;;;;;;;;;;;;;;;5116398;28;20021;-84
2022/07/09 09:00:37;;;;;;;;;;;;;;;;;;5116415;28;19915;-90
2022/07/09 09:03:02;;;;;;;;;;;;;;;;;;5116976;28;20005;-83
2022/07/09 09:05:27;;;;;;;;;;;;;;;;;;5116578;27;20011;-84
2022/07/09 09:07:53;;;;;;;;;;;;;;;;;;5116084;28;20290;-84
2022/07/09 09:10:28;;;;;;;;;;;;;;;;;;5116105;28;19915;-83
2022/07/09 09:12:57;;;;;;;;;;;;;;;;;;5115712;28;19920;-84
2022/07/09 09:15:23;;;;;;;;;;;;;;;;;;5117767;28;20373;-85
2022/07/09 09:17:49;;;;;;;;;;;;;;;;;;5117228;28;19919;-85
2022/07/09 09:20:14;;;;;;;;;;;;;;;;;;5117210;28;20332;-84
2022/07/09 09:22:44;;;;;;;;;;;;;;;;;;5118660;28;19923;-84
2022/07/09 09:25:15;;;;;;;;;;;;;;;;;;5117872;28;19916;-83
2022/07/09 09:27:40;;;;;;;;;;;;;;;;;;5116549;28;20310;-84
2022/07/09 09:30:09;;;;;;;;;;;;;;;;;;5116825;28;19916;-85
2022/07/09 09:32:34;;;;;;;;;;;;;;;;;;5116746;28;19916;-84
2022/07/09 09:35:02;;;;;;;;;;;;;;;;;;5116556;28;20529;-84
2022/07/09 09:37:29;;;;;;;;;;;;;;;;;;5117304;28;19922;-85
2022/07/09 09:39:55;;;;;;;;;;;;;;;;;;5116596;28;19922;-88
2022/07/09 09:42:22;;;;;;;;;;;;;;;;;;5095952;27;19920;-87
2022/07/09 09:44:50;;;;;;;;;;;;;;;;;;5095703;28;19970;-87
2022/07/09 09:47:18;;;;;;;;;;;;;;;;;;5093776;28;20273;-85
2022/07/09 09:49:44;;;;;;;;;;;;;;;;;;5112163;28;20379;-86
2022/07/09 09:52:10;;;;;;;;;;;;;;;;;;5096336;28;19912;-86
2022/07/09 09:54:36;;;;;;;;;;;;;;;;;;5096543;28;19969;-87
2022/07/09 09:57:06;;;;;;;;;;;;;;;;;;5095707;28;19998;-86
2022/07/09 09:59:33;;;;;;;;;;;;;;;;;;5110418;28;19966;-87
2022/07/09 10:01:59;;;;;;;;;;;;;;;;;;5095351;28;19917;-86
2022/07/09 10:04:25;;;;;;;;;;;;;;;;;;5095670;28;20270;-86
2022/07/09 10:06:50;;;;;;;;;;;;;;;;;;5094847;28;19920;-86
2022/07/09 10:09:16;;;;;;;;;;;;;;;;;;5094550;28;19924;-86
2022/07/09 10:11:46;;;;;;;;;;;;;;;;;;5122136;27;19961;-86
2022/07/09 10:14:16;;;;;;;;;;;;;;;;;;5135929;27;19916;-87
2022/07/09 10:16:41;;;;;;;;;;;;;;;;;;5136045;27;19958;-87
2022/07/09 10:19:07;;;;;;;;;;;;;;;;;;5131539;27;19955;-88
2022/07/09 10:21:33;;;;;;;;;;;;;;;;;;5113509;28;20369;-85
2022/07/09 10:23:58;;;;;;;;;;;;;;;;;;5114390;28;19955;-85
2022/07/09 10:26:34;;;;;;;;;;;;;;;;;;5114276;28;20345;-87
2022/07/09 10:28:59;;;;;;;;;;;;;;;;;;5112929;28;19920;-86
2022/07/09 10:31:26;;;;;;;;;;;;;;;;;;5114045;28;20398;-87
2022/07/09 10:34:01;;;;;;;;;;;;;;;;;;5115535;28;19916;-86
2022/07/09 10:36:27;;;;;;;;;;;;;;;;;;5115180;28;19916;-85
2022/07/09 10:38:53;;;;;;;;;;;;;;;;;;5115291;28;19916;-87
2022/07/09 10:41:22;;;;;;;;;;;;;;;;;;5115704;28;19916;-85
2022/07/09 10:43:51;;;;;;;;;;;;;;;;;;5115602;28;20006;-85
2022/07/09 10:46:17;;;;;;;;;;;;;;;;;;5119956;28;19923;-85
2022/07/09 10:48:44;;;;;;;;;;;;;;;;;;5120323;28;19923;-86
2022/07/09 10:51:16;;;;;;;;;;;;;;;;;;5127502;28;19979;-87
2022/07/09 10:53:41;;;;;;;;;;;;;;;;;;5123976;28;19915;-86
2022/07/09 10:56:07;;;;;;;;;;;;;;;;;;5121083;28;19916;-86
2022/07/09 10:58:32;;;;;;;;;;;;;;;;;;5118740;28;19919;-85
2022/07/09 11:01:01;;;;;;;;;;;;;;;;;;5115754;28;19954;-86
2022/07/09 11:03:27;;;;;;;;;;;;;;;;;;5115729;28;19920;-87
2022/07/09 11:05:52;;;;;;;;;;;;;;;;;;5115430;28;19916;-86
2022/07/09 11:08:18;;;;;;;;;;;;;;;;;;5114988;28;19939;-86
2022/07/09 11:10:44;;;;;;;;;;;;;;;;;;5113073;28;20375;-86
2022/07/09 11:13:09;;;;;;;;;;;;;;;;;;5093873;28;19923;-86
2022/07/09 11:15:35;;;;;;;;;;;;;;;;;;5093841;28;20287;-88
2022/07/09 11:18:15;;;;;;;;;;;;;;;;;;5093885;28;20351;-90
2022/07/09 11:20:44;;;;;;;;;;;;;;;;;;5107542;28;19969;-88
2022/07/09 11:23:09;;;;;;;;;;;;;;;;;;5137975;27;19916;-88
2022/07/09 11:25:35;;;;;;;;;;;;;;;;;;5138343;27;20282;-87
2022/07/09 11:28:01;;;;;;;;;;;;;;;;;;5143380;27;19964;-87
2022/07/09 11:30:27;;;;;;;;;;;;;;;;;;5154637;27;19919;-89
2022/07/09 11:32:53;;;;;;;;;;;;;;;;;;5141149;27;19919;-89
2022/07/09 11:35:25;;;;;;;;;;;;;;;;;;5137184;27;19920;-88
2022/07/09 11:37:51;;;;;;;;;;;;;;;;;;5172810;27;19916;-84
2022/07/09 11:40:20;;;;;;;;;;;;;;;;;;5138855;27;19916;-85
2022/07/09 11:42:46;;;;;;;;;;;;;;;;;;5122276;27;19923;-85
2022/07/09 11:45:11;;;;;;;;;;;;;;;;;;5118369;28;19915;-85
2022/07/09 11:47:38;;;;;;;;;;;;;;;;;;5124848;28;20424;-85
2022/07/09 11:50:14;;;;;;;;;;;;;;;;;;5114604;28;19987;-84
2022/07/09 11:52:44;;;;;;;;;;;;;;;;;;5114349;28;19951;-86
2022/07/09 11:55:11;;;;;;;;;;;;;;;;;;5115204;28;19915;-87
2022/07/09 11:57:39;;;;;;;;;;;;;;;;;;5115713;28;19915;-85
2022/07/09 12:00:27;;;;;;;;;;;;;;;;;;5146482;27;19942;-85
2022/07/09 12:02:52;;;;;;;;;;;;;;;;;;5117692;28;20278;-84
2022/07/09 12:05:31;;;;;;;;;;;;;;;;;;5118453;28;19916;-87
2022/07/09 12:08:01;;;;;;;;;;;;;;;;;;5118590;28;19916;-85
2022/07/09 12:10:28;;;;;;;;;;;;;;;;;;5118581;28;19916;-87
2022/07/09 12:12:53;;;;;;;;;;;;;;;;;;5117650;28;19922;-87
2022/07/09 12:15:19;;;;;;;;;;;;;;;;;;5118213;28;19923;-87
2022/07/09 12:17:44;;;;;;;;;;;;;;;;;;5112013;27;19963;-85
2022/07/09 12:20:10;;;;;;;;;;;;;;;;;;5117766;28;20428;-86
2022/07/09 12:22:35;;;;;;;;;;;;;;;;;;5116607;28;20378;-86
2022/07/09 12:25:01;;;;;;;;;;;;;;;;;;5117418;28;19951;-85
2022/07/09 12:27:27;;;;;;;;;;;;;;;;;;5117902;28;20000;-86
2022/07/09 12:29:52;;;;;;;;;;;;;;;;;;5120615;28;19927;-88
2022/07/09 12:32:19;;;;;;;;;;;;;;;;;;5115171;28;19947;-87
2022/07/09 12:34:44;;;;;;;;;;;;;;;;;;5109028;28;20323;-86
2022/07/09 12:37:10;;;;;;;;;;;;;;;;;;5107039;28;19924;-88
2022/07/09 12:39:35;;;;;;;;;;;;;;;;;;5117234;28;19968;-87
2022/07/09 12:42:04;;;;;;;;;;;;;;;;;;5114334;28;20362;-86
2022/07/09 12:44:29;;;;;;;;;;;;;;;;;;5117999;28;19920;-86
2022/07/09 12:46:57;;;;;;;;;;;;;;;;;;5126648;27;20279;-85
2022/07/09 12:49:22;;;;;;;;;;;;;;;;;;5112614;28;20405;-85
2022/07/09 12:51:48;;;;;;;;;;;;;;;;;;5114526;28;19919;-87
2022/07/09 12:54:13;;;;;;;;;;;;;;;;;;5119601;27;20012;-85
2022/07/09 12:56:39;;;;;;;;;;;;;;;;;;5122169;27;19920;-85
2022/07/09 12:59:04;;;;;;;;;;;;;;;;;;5118295;28;19963;-85
2022/07/09 13:01:30;;;;;;;;;;;;;;;;;;5149798;27;19969;-85
2022/07/09 13:03:55;;;;;;;;;;;;;;;;;;5116611;28;19919;-84
2022/07/09 13:06:36;;;;;;;;;;;;;;;;;;5116510;28;19916;-85
2022/07/09 13:09:02;;;;;;;;;;;;;;;;;;5116577;28;19915;-84
2022/07/09 13:11:29;;;;;;;;;;;;;;;;;;5116484;28;19941;-84
2022/07/09 13:13:54;;;;;;;;;;;;;;;;;;5115026;28;19984;-85
2022/07/09 13:16:19;;;;;;;;;;;;;;;;;;5117738;27;20366;-84
2022/07/09 13:18:45;;;;;;;;;;;;;;;;;;5149714;27;19926;-86
2022/07/09 13:21:10;;;;;;;;;;;;;;;;;;5116378;28;19919;-86
2022/07/09 13:23:36;;;;;;;;;;;;;;;;;;5122513;27;20056;-87
2022/07/09 13:26:02;;;;;;;;;;;;;;;;;;5136733;27;19925;-85
2022/07/09 13:28:27;;;;;;;;;;;;;;;;;;5121548;27;19919;-85
2022/07/09 13:30:53;;;;;;;;;;;;;;;;;;5114527;28;19916;-85
2022/07/09 13:33:19;;;;;;;;;;;;;;;;;;5131302;27;20006;-85
2022/07/09 13:35:44;;;;;;;;;;;;;;;;;;5135557;27;19943;-85
2022/07/09 13:38:10;;;;;;;;;;;;;;;;;;5136569;27;19962;-85
2022/07/09 13:40:35;;;;;;;;;;;;;;;;;;5133293;27;20355;-87
2022/07/09 13:43:01;;;;;;;;;;;;;;;;;;5116880;28;19912;-85
2022/07/09 13:45:28;;;;;;;;;;;;;;;;;;5115748;28;19915;-85
2022/07/09 13:47:55;;;;;;;;;;;;;;;;;;5115892;28;19927;-86
2022/07/09 13:50:21;;;;;;;;;;;;;;;;;;5115997;28;19916;-85
2022/07/09 13:52:47;;;;;;;;;;;;;;;;;;5115283;28;19916;-85
2022/07/09 13:55:12;;;;;;;;;;;;;;;;;;5116304;28;19923;-82
2022/07/09 13:57:38;;;;;;;;;;;;;;;;;;5115615;28;19927;-84
2022/07/09 14:00:04;;;;;;;;;;;;;;;;;;5116089;28;20379;-86
2022/07/09 14:02:32;;;;;;;;;;;;;;;;;;5115761;28;19922;-85
2022/07/09 14:04:57;;;;;;;;;;;;;;;;;;5126341;27;19926;-85
2022/07/09 14:07:23;;;;;;;;;;;;;;;;;;5136375;27;20683;-83
2022/07/09 14:09:48;;;;;;;;;;;;;;;;;;5136336;27;19980;-85
2022/07/09 14:12:14;;;;;;;;;;;;;;;;;;5136305;27;20404;-85
2022/07/09 14:14:39;;;;;;;;;;;;;;;;;;5138056;27;19919;-89
2022/07/09 14:17:05;;;;;;;;;;;;;;;;;;5137871;27;20013;-87
2022/07/09 14:19:31;;;;;;;;;;;;;;;;;;5139038;27;19923;-87
2022/07/09 14:21:56;;;;;;;;;;;;;;;;;;5151580;27;19927;-87
2022/07/09 14:24:23;;;;;;;;;;;;;;;;;;5112698;28;20283;-89
2022/07/09 14:26:50;;;;;;;;;;;;;;;;;;5109766;28;19928;-88
2022/07/09 14:29:16;;;;;;;;;;;;;;;;;;5092782;22;19952;-89
2022/07/09 14:31:41;;;;;;;;;;;;;;;;;;5066697;28;19925;-88
2022/07/09 14:34:07;;;;;;;;;;;;;;;;;;5059947;28;19921;-89
2022/07/09 14:36:32;;;;;;;;;;;;;;;;;;5066333;28;19920;-87
2022/07/09 14:38:58;;;;;;;;;;;;;;;;;;5050232;28;20292;-89
2022/07/09 14:41:24;;;;;;;;;;;;;;;;;;5047507;28;19964;-90
2022/07/09 14:43:49;;;;;;;;;;;;;;;;;;5067609;28;19924;-86
2022/07/09 14:46:15;;;;;;;;;;;;;;;;;;5057786;28;20394;-88
2022/07/09 14:48:40;;;;;;;;;;;;;;;;;;5055929;28;20010;-88
2022/07/09 14:51:06;;;;;;;;;;;;;;;;;;5056288;28;19916;-88
2022/07/09 14:53:32;;;;;;;;;;;;;;;;;;5056515;28;20020;-89
2022/07/09 14:55:57;;;;;;;;;;;;;;;;;;5057444;28;20004;-88
2022/07/09 14:58:23;;;;;;;;;;;;;;;;;;5058424;28;19928;-88
2022/07/09 15:00:48;;;;;;;;;;;;;;;;;;5061408;28;19989;-89
2022/07/09 15:03:13;;;;;;;;;;;;;;;;;;5061469;28;20011;-88
2022/07/09 15:05:39;;;;;;;;;;;;;;;;;;5068273;28;19969;-88
2022/07/09 15:08:04;;;;;;;;;;;;;;;;;;5066495;28;19943;-88
2022/07/09 15:10:30;;;;;;;;;;;;;;;;;;5055007;28;19917;-89
2022/07/09 15:12:55;;;;;;;;;;;;;;;;;;5055233;28;19917;-87
2022/07/09 15:15:21;;;;;;;;;;;;;;;;;;5055699;28;19917;-88
2022/07/09 15:17:46;;;;;;;;;;;;;;;;;;5058221;28;19932;-88
2022/07/09 15:20:11;;;;;;;;;;;;;;;;;;5069035;28;19980;-88
2022/07/09 15:22:37;;;;;;;;;;;;;;;;;;5071571;28;19921;-88
2022/07/09 15:25:04;;;;;;;;;;;;;;;;;;5063037;28;19921;-88
2022/07/09 15:27:31;;;;;;;;;;;;;;;;;;5067068;28;19924;-87
2022/07/09 15:29:56;;;;;;;;;;;;;;;;;;5054795;28;20054;-89
2022/07/09 15:32:22;;;;;;;;;;;;;;;;;;5060441;28;19974;-89
2022/07/09 15:34:47;;;;;;;;;;;;;;;;;;5072469;28;20202;-88
2022/07/09 15:37:13;;;;;;;;;;;;;;;;;;5072165;28;20560;-88
2022/07/09 15:39:38;;;;;;;;;;;;;;;;;;5063700;28;19916;-90
2022/07/09 15:42:04;;;;;;;;;;;;;;;;;;5071390;28;20331;-88
2022/07/09 15:44:29;;;;;;;;;;;;;;;;;;5076259;28;19998;-89
2022/07/09 15:46:56;;;;;;;;;;;;;;;;;;5079149;28;19920;-90
2022/07/09 15:49:22;;;;;;;;;;;;;;;;;;5059853;28;19916;-89
2022/07/09 15:51:48;;;;;;;;;;;;;;;;;;5057566;28;19927;-88
2022/07/09 15:54:13;;;;;;;;;;;;;;;;;;5064743;28;19977;-88
2022/07/09 15:56:39;;;;;;;;;;;;;;;;;;5058074;28;19943;-90
2022/07/09 15:59:04;;;;;;;;;;;;;;;;;;5057297;28;19966;-89
2022/07/09 16:01:30;;;;;;;;;;;;;;;;;;5055458;28;20097;-90
2022/07/09 16:03:55;;;;;;;;;;;;;;;;;;5055027;28;19948;-88
2022/07/09 16:06:21;;;;;;;;;;;;;;;;;;5056345;28;19920;-90
2022/07/09 16:08:47;;;;;;;;;;;;;;;;;;5056169;28;19987;-89
2022/07/09 16:13:56;;;;;;;;;;;;;;;;;;5056291;28;19923;-88
2022/07/09 16:16:22;;;;;;;;;;;;;;;;;;5054824;28;20434;-89
2022/07/09 16:18:47;;;;;;;;;;;;;;;;;;5055838;28;19920;-89
2022/07/09 16:21:12;;;;;;;;;;;;;;;;;;5055984;28;19927;-88
2022/07/09 16:23:38;;;;;;;;;;;;;;;;;;5054527;28;19916;-89
2022/07/09 16:26:03;;;;;;;;;;;;;;;;;;5055709;28;19921;-89
2022/07/09 16:28:29;;;;;;;;;;;;;;;;;;5055644;28;19920;-88
2022/07/09 16:30:54;;;;;;;;;;;;;;;;;;5055947;28;20364;-89
2022/07/09 16:33:20;;;;;;;;;;;;;;;;;;5054410;28;19962;-88
2022/07/09 16:35:45;;;;;;;;;;;;;;;;;;5054365;28;19968;-89
2022/07/09 16:38:10;;;;;;;;;;;;;;;;;;5054571;28;19952;-89
2022/07/09 16:40:38;;;;;;;;;;;;;;;;;;5055733;28;20352;-87
2022/07/09 16:43:04;;;;;;;;;;;;;;;;;;5055838;28;19913;-87